Errol, United Kingdom
Current Conditions -  °F | °C
As of 6:20 PM on Thursday 30 Oct 2014 (Local Time) from EGPN Reporting Station
Broken Clouds Broken Clouds  
Wind Chill: 54°   Ceiling: 2000
Heat Index: 54°   Visibility: 5mi
Dew Point: 52°   Wind: 2mph
Humidity: 94%   Direction: 70°ENE
Pressure: 29.85"   Gusts: NA
Location:  56.39°N, 3.21°W
Report Text: EGPN 301820Z 07002KT 8000 FEW008 SCT011 BKN020 12/11 Q1011
Loading
Personal Weather Stations






























Interactive Weather Map
Tropical Storm Tracking
New forecast layout! Learn more

10-Day Weather Forecast

Advertisements
Track Severe Weather on mobile